Time;durP1;ratioP1;P1;durP2;ratioP2;P2;SDS_P1;SDS_P2;PMS_P1;PMS_P2;Temp;Humidity;BMP_temperature;BMP_pressure;BME280_temperature;BME280_humidity;BME280_pressure;Samples;Min_cycle;Max_cycle;Signal;HPM_P1;HPM_P2
2022/09/20 00:01:22;;;;;;;5.72;5.45;;;;;;;9.77;100.00;101585.22;6097301;23;20017;-74
2022/09/20 00:03:52;;;;;;;4.60;4.40;;;;;;;10.35;100.00;101674.16;6111481;23;20528;-74
2022/09/20 00:06:24;;;;;;;6.00;5.70;;;;;;;10.34;100.00;101670.69;6068614;23;20010;-73
2022/09/20 00:08:51;;;;;;;;;;;;;;;10.45;100.00;101690.44;6126364;23;20029;-72
2022/09/20 00:11:23;;;;;;;5.93;5.63;;;;;;;10.47;100.00;101693.84;6143707;23;19929;-73
2022/09/20 00:13:53;;;;;;;5.13;4.68;;;;;;;10.10;100.00;101617.28;6105952;23;20029;-73
2022/09/20 00:16:27;;;;;;;5.93;5.63;;;;;;;10.42;100.00;101686.13;6143389;23;20074;-74
2022/09/20 00:18:55;;;;;;;4.80;4.60;;;;;;;10.42;100.00;101666.91;6140444;23;20028;-74
2022/09/20 00:21:28;;;;;;;6.53;6.22;;;;;;;9.95;100.00;101592.44;6130018;23;20651;-74
2022/09/20 00:23:59;;;;;;;7.53;4.82;;;;;;;10.14;100.00;101618.00;6120232;23;20059;-74
2022/09/20 00:26:27;;;;;;;5.90;5.60;;;;;;;10.15;100.00;101611.88;6108412;23;20025;-73
2022/09/20 00:28:55;;;;;;;4.60;4.40;;;;;;;10.52;100.00;101681.41;6141525;23;20017;-72
2022/09/20 00:31:22;;;;;;;5.80;5.50;;;;;;;10.48;100.00;101669.31;6137732;23;20062;-72
2022/09/20 00:36:34;;;;;;;4.35;4.15;;;;;;;10.50;100.00;101685.88;6139571;23;20040;-73
2022/09/20 00:39:01;;;;;;;4.93;4.63;;;;;;;10.50;100.00;101693.72;6135485;23;20045;-73
2022/09/20 00:41:29;;;;;;;6.28;5.88;;;;;;;10.49;100.00;101692.03;6142053;23;20112;-73
2022/09/20 00:43:57;;;;;;;4.40;4.20;;;;;;;10.38;100.00;101674.03;6129899;23;20017;-74
2022/09/20 00:46:43;;;;;;;6.40;6.10;;;;;;;10.51;100.00;101687.59;6105952;23;20022;-73
2022/09/20 00:49:19;;;;;;;4.82;4.53;;;;;;;10.45;100.00;101678.16;6135799;23;20021;-75
2022/09/20 00:51:51;;;;;;;5.15;4.85;;;;;;;10.36;100.00;101666.25;6135617;23;20514;-74
2022/09/20 00:54:19;;;;;;;5.85;5.55;;;;;;;9.88;100.00;101583.09;6132737;23;20070;-73
2022/09/20 00:56:47;;;;;;;4.60;4.40;;;;;;;10.49;100.00;101694.66;6133217;23;20088;-73
2022/09/20 00:59:18;;;;;;;5.80;5.30;;;;;;;10.29;100.00;101653.34;6116580;23;20041;-75
2022/09/20 01:01:50;;;;;;;4.50;4.30;;;;;;;10.34;100.00;101662.81;6137668;23;20505;-75
2022/09/20 01:04:21;;;;;;;6.15;5.75;;;;;;;10.50;100.00;101685.88;6132558;23;20027;-74
2022/09/20 01:06:51;;;;;;;5.47;5.07;;;;;;;10.35;100.00;101654.03;6139290;23;20047;-75
2022/09/20 01:09:18;;;;;;;5.93;5.63;;;;;;;10.53;100.00;101680.50;6106332;23;20017;-74
2022/09/20 01:11:45;;;;;;;5.93;4.40;;;;;;;10.11;100.00;101619.00;6135876;23;20023;-73
2022/09/20 01:14:15;;;;;;;4.95;4.72;;;;;;;10.50;100.00;101668.38;6133743;23;20013;-74
2022/09/20 01:16:42;;;;;;;9.57;4.95;;;;;;;9.71;100.00;101538.25;6137258;23;20013;-73
2022/09/20 01:19:18;;;;;;;4.80;4.60;;;;;;;10.55;100.00;101679.53;6108621;23;20100;-76
2022/09/20 01:21:47;;;;;;;4.82;4.53;;;;;;;10.23;100.00;101632.59;6136324;23;20021;-75
2022/09/20 01:24:24;;;;;;;4.90;4.60;;;;;;;10.25;100.00;101625.53;6129337;23;20404;-74
2022/09/20 01:27:05;;;;;;;5.18;4.88;;;;;;;10.50;100.00;101676.25;6142012;23;20013;-74
2022/09/20 01:29:37;;;;;;;5.47;5.07;;;;;;;10.39;100.00;101665.25;6133856;23;20016;-72
2022/09/20 01:32:11;;;;;;;4.40;4.20;;;;;;;10.53;100.00;101683.13;6135531;23;20013;-74
2022/09/20 01:34:52;;;;;;;4.65;4.45;;;;;;;10.51;100.00;101679.72;6106291;23;20557;-73
2022/09/20 01:37:30;;;;;;;5.97;5.68;;;;;;;10.47;100.00;101667.63;6132664;23;20074;-73
2022/09/20 01:40:27;;;;;;;4.68;4.47;;;;;;;10.51;100.00;101679.72;6108670;23;20017;-73
2022/09/20 01:43:07;;;;;;;4.65;4.35;;;;;;;10.10;100.00;101619.03;6126602;23;20025;-73
2022/09/20 01:45:34;;;;;;;11.65;4.30;;;;;;;10.49;100.00;101681.53;6089044;23;20025;-74
2022/09/20 01:48:07;;;;;;;4.43;4.20;;;;;;;10.49;100.00;101682.38;6133980;23;20248;-73
2022/09/20 01:50:56;;;;;;;4.70;4.47;;;;;;;10.41;100.00;101667.84;6098035;23;20013;-74
2022/09/20 01:53:29;;;;;;;5.68;5.38;;;;;;;10.47;100.00;101680.75;6133684;23;20016;-73
2022/09/20 01:56:19;;;;;;;4.80;4.60;;;;;;;10.48;100.00;101685.91;6118203;23;20025;-75
2022/09/20 01:59:09;;;;;;;4.68;4.38;;;;;;;10.48;100.00;101678.03;6130487;23;20066;-72
2022/09/20 02:01:52;;;;;;;4.80;4.50;;;;;;;10.48;100.00;101683.28;6133640;23;20009;-73
2022/09/20 02:04:55;;;;;;;6.32;6.03;;;;;;;10.48;100.00;101683.28;6127266;23;20030;-75
2022/09/20 02:07:37;;;;;;;6.68;5.50;;;;;;;10.48;100.00;101683.28;6124978;23;20029;-73
2022/09/20 02:10:31;;;;;;;4.55;4.35;;;;;;;10.52;100.00;101686.66;6122173;23;21510;-74
2022/09/20 02:13:02;;;;;;;4.80;4.25;;;;;;;10.42;100.00;101666.91;6105904;23;20013;-75
2022/09/20 02:15:53;;;;;;;5.70;5.40;;;;;;;10.52;100.00;101686.66;6114022;23;20245;-74
2022/09/20 02:18:54;;;;;;;5.78;5.47;;;;;;;10.52;100.00;101686.66;6093988;23;20022;-74
2022/09/20 02:21:35;;;;;;;6.05;5.75;;;;;;;10.44;100.00;101684.31;6117648;23;20481;-73
2022/09/20 02:24:26;;;;;;;4.35;4.15;;;;;;;10.49;100.00;101687.63;6097653;23;20025;-72
2022/09/20 02:27:04;;;;;;;4.68;4.47;;;;;;;10.49;100.00;101685.00;6133116;23;20077;-74
2022/09/20 02:29:52;;;;;;;4.70;4.50;;;;;;;10.50;100.00;101683.25;6103608;23;20017;-74
2022/09/20 02:32:51;;;;;;;5.90;5.60;;;;;;;10.19;100.00;101635.31;6137234;23;20085;-75
2022/09/20 02:35:34;;;;;;;5.75;5.45;;;;;;;10.08;100.00;101607.75;6102975;23;20573;-71
2022/09/20 02:38:37;;;;;;;5.53;4.60;;;;;;;10.48;100.00;101666.69;6097149;23;20659;-74
2022/09/20 02:41:21;;;;;;;4.47;4.28;;;;;;;10.45;100.00;101662.41;6116203;23;20021;-73
2022/09/20 02:44:03;;;;;;;4.45;4.25;;;;;;;10.18;100.00;101630.09;6104072;23;20662;-73
2022/09/20 02:46:46;;;;;;;5.20;4.72;;;;;;;10.03;100.00;101597.44;6130865;23;20013;-75
2022/09/20 02:49:30;;;;;;;5.00;4.80;;;;;;;10.13;100.00;101621.56;6077938;23;20017;-76
2022/09/20 02:52:18;;;;;;;4.50;4.30;;;;;;;10.22;100.00;101628.25;6096601;23;20022;-74
2022/09/20 02:55:06;;;;;;;5.18;4.78;;;;;;;10.40;100.00;101666.13;6093343;23;20039;-73
2022/09/20 02:57:47;;;;;;;4.38;4.18;;;;;;;10.41;100.00;101659.97;6095376;23;20046;-73
2022/09/20 03:00:22;;;;;;;4.68;4.47;;;;;;;10.40;100.00;101664.34;6107903;23;20014;-75
2022/09/20 03:03:05;;;;;;;4.72;4.53;;;;;;;10.18;100.00;101631.00;6098830;23;20002;-74
2022/09/20 03:06:01;;;;;;;4.82;4.63;;;;;;;9.84;100.00;101573.59;6106723;23;20017;-73
2022/09/20 03:08:57;;;;;;;6.60;6.15;;;;;;;10.42;100.00;101687.91;6121886;23;20429;-73
2022/09/20 03:11:45;;;;;;;5.47;5.07;;;;;;;10.41;100.00;101667.84;6083696;23;20022;-72
2022/09/20 03:14:29;;;;;;;4.57;4.38;;;;;;;10.40;100.00;101660.88;6098564;23;20093;-75
2022/09/20 03:17:09;;;;;;;4.63;4.40;;;;;;;10.38;100.00;101667.03;6117885;23;20706;-74
2022/09/20 03:20:05;;;;;;;4.90;4.60;;;;;;;10.37;100.00;101662.69;6106483;23;20616;-73
2022/09/20 03:22:59;;;;;;;6.20;5.63;;;;;;;10.36;100.00;101661.00;6126384;23;20130;-73
2022/09/20 03:25:38;;;;;;;5.97;5.68;;;;;;;10.30;100.00;101657.72;6099010;23;20161;-74
2022/09/20 03:28:18;;;;;;;4.70;4.50;;;;;;;9.95;100.00;101609.94;6117934;23;20618;-74
2022/09/20 03:30:59;;;;;;;4.97;4.68;;;;;;;10.31;100.00;101655.03;6107285;23;20029;-73
2022/09/20 03:33:35;;;;;;;6.57;6.00;;;;;;;10.18;100.00;101644.09;6133379;23;20044;-75
2022/09/20 03:36:11;;;;;;;4.40;4.20;;;;;;;10.35;100.00;101661.03;6104774;23;20014;-74
2022/09/20 03:38:51;;;;;;;4.30;4.10;;;;;;;10.27;100.00;101660.44;6135292;23;20024;-74
2022/09/20 03:42:02;;;;;;;6.25;5.95;;;;;;;9.84;100.00;101583.25;6097149;23;20231;-74
2022/09/20 03:44:47;;;;;;;5.45;5.15;;;;;;;9.72;100.00;101568.78;6062786;23;20041;-72
2022/09/20 03:47:42;;;;;;;5.05;4.80;;;;;;;10.31;100.00;101657.66;6096349;23;20517;-71
2022/09/20 03:50:19;;;;;;;4.35;4.15;;;;;;;10.03;100.00;101617.56;5976237;23;20070;-75
2022/09/20 03:53:13;;;;;;;5.60;5.07;;;;;;;10.30;100.00;101665.59;6106746;23;20094;-72
2022/09/20 03:56:10;;;;;;;5.43;4.47;;;;;;;9.79;100.00;101578.16;6115211;23;20013;-73
2022/09/20 03:59:09;;;;;;;4.53;4.32;;;;;;;10.26;100.00;101662.16;6092060;23;20493;-75
2022/09/20 04:01:41;;;;;;;5.13;4.72;;;;;;;10.26;100.00;101667.41;6126405;23;20024;-74
2022/09/20 04:04:35;;;;;;;5.85;5.55;;;;;;;10.05;100.00;101639.34;6100054;23;20087;-75
2022/09/20 04:07:36;;;;;;;4.78;4.50;;;;;;;10.27;100.00;101668.28;6127225;23;20017;-71
2022/09/20 04:10:20;;;;;;;5.07;4.80;;;;;;;10.12;100.00;101648.69;6103289;23;20083;-72
2022/09/20 04:12:59;;;;;;;6.03;4.30;;;;;;;10.24;100.00;101677.09;6112547;23;20020;-73
2022/09/20 04:15:57;;;;;;;7.35;6.68;;;;;;;10.25;100.00;101673.59;6094617;23;20009;-75
2022/09/20 04:18:31;;;;;;;6.57;6.03;;;;;;;10.25;100.00;101675.38;6075748;23;20013;-73
2022/09/20 04:21:09;;;;;;;4.60;4.40;;;;;;;10.24;100.00;101676.25;6083889;23;20628;-73
2022/09/20 04:24:05;;;;;;;4.53;4.32;;;;;;;10.24;100.00;101674.47;6132307;23;20032;-74
2022/09/20 04:26:38;;;;;;;5.47;5.18;;;;;;;9.94;100.00;101629.19;6050258;23;20014;-75
2022/09/20 04:29:07;;;;;;;4.60;4.40;;;;;;;10.23;100.00;101671.94;6138196;23;20033;-75
2022/09/20 04:31:44;;;;;;;4.97;4.78;;;;;;;9.77;100.00;101595.72;6098037;23;20017;-75
2022/09/20 04:36:27;;;;;;;5.63;5.28;;;;;;;9.88;100.00;101617.19;6125984;23;20009;-76
2022/09/20 04:37:32;;;;;;;5.72;5.47;;;;;;;10.04;100.00;101648.09;6105667;23;20043;-76
2022/09/20 04:40:07;;;;;;;5.40;5.10;;;;;;;9.78;100.00;101600.91;6099977;23;20030;-74
2022/09/20 04:43:07;;;;;;;4.85;4.55;;;;;;;10.22;100.00;101675.47;6132810;23;20103;-73
2022/09/20 04:46:08;;;;;;;7.97;4.65;;;;;;;10.17;100.00;101673.84;6107000;23;20006;-73
2022/09/20 04:48:46;;;;;;;4.38;4.18;;;;;;;10.16;100.00;101671.28;6131169;23;20093;-75
2022/09/20 04:51:28;;;;;;;5.15;4.90;;;;;;;10.13;100.00;101669.63;6077394;23;20017;-72
2022/09/20 04:54:20;;;;;;;5.90;5.40;;;;;;;10.13;100.00;101672.25;6125139;23;20067;-72
2022/09/20 04:57:04;;;;;;;6.03;4.95;;;;;;;9.84;100.00;101636.53;6106168;23;20033;-74
2022/09/20 04:59:46;;;;;;;4.93;4.63;;;;;;;10.11;100.00;101681.09;6130241;23;24912;-74
2022/09/20 05:02:50;;;;;;;4.93;4.72;;;;;;;10.13;100.00;101679.28;6096468;23;20009;-75
2022/09/20 05:05:35;;;;;;;7.72;7.32;;;;;;;9.80;100.00;101632.28;6099832;23;20017;-72
2022/09/20 05:08:30;;;;;;;5.43;5.03;;;;;;;10.13;100.00;101689.75;6095624;23;20084;-73
2022/09/20 05:11:34;;;;;;;6.60;5.20;;;;;;;10.11;100.00;101689.81;6124476;23;20079;-74
2022/09/20 05:14:11;;;;;;;5.20;4.90;;;;;;;10.13;100.00;101689.75;6107637;23;20652;-73
2022/09/20 05:17:10;;;;;;;5.15;4.85;;;;;;;10.14;100.00;101694.09;6124716;23;20759;-73
2022/09/20 05:19:43;;;;;;;5.13;4.72;;;;;;;10.14;100.00;101691.47;6101614;23;20034;-75
2022/09/20 05:22:57;;;;;;;5.05;4.75;;;;;;;10.14;100.00;101696.69;6134459;23;20027;-75
2022/09/20 05:25:55;;;;;;;6.13;5.82;;;;;;;10.17;100.00;101694.00;6104414;23;20017;-73
2022/09/20 05:28:59;;;;;;;6.20;5.90;;;;;;;10.17;100.00;101694.84;6128250;23;20088;-75
2022/09/20 05:31:39;;;;;;;7.75;7.03;;;;;;;9.84;100.00;101639.16;6044700;23;20557;-73
2022/09/20 05:34:16;;;;;;;5.53;5.13;;;;;;;10.22;100.00;101704.31;6115578;23;20029;-75
2022/09/20 05:37:09;;;;;;;4.82;4.57;;;;;;;9.44;100.00;101571.50;6108040;23;20033;-75
2022/09/20 05:39:42;;;;;;;5.18;4.88;;;;;;;10.27;100.00;101705.88;6124727;23;20076;-73
2022/09/20 05:42:38;;;;;;;5.28;4.97;;;;;;;10.30;100.00;101702.31;6077423;23;20017;-77
2022/09/20 05:45:38;;;;;;;5.22;5.00;;;;;;;9.87;100.00;101625.09;6137188;23;20017;-74
2022/09/20 05:48:17;;;;;;;5.43;5.13;;;;;;;8.74;100.00;101444.59;6099122;23;20025;-75
2022/09/20 05:51:21;;;;;;;5.40;4.50;;;;;;;9.72;100.00;101592.38;6137309;23;20074;-75
2022/09/20 05:54:00;;;;;;;5.40;5.07;;;;;;;10.30;100.00;101689.19;6076382;23;20025;-75
2022/09/20 05:57:00;;;;;;;6.55;6.15;;;;;;;10.42;100.00;101701.88;6123962;23;20049;-77
2022/09/20 05:59:48;;;;;;;10.20;6.82;;;;;;;10.46;100.00;101710.50;6102139;23;20083;-75
2022/09/20 06:02:31;;;;;;;9.32;6.70;;;;;;;9.94;100.00;101619.59;6132592;23;20414;-76
2022/09/20 06:05:13;;;;;;;5.32;5.05;;;;;;;10.52;100.00;101703.28;6100693;23;20072;-76
2022/09/20 06:07:58;;;;;;;5.60;5.10;;;;;;;9.54;100.00;101533.59;6099652;23;20753;-75
2022/09/20 06:10:42;;;;;;;6.88;6.47;;;;;;;10.10;100.00;101621.66;6080898;23;20026;-74
2022/09/20 06:13:40;;;;;;;5.85;5.53;;;;;;;10.69;100.00;101715.78;6107184;23;20025;-75
2022/09/20 06:16:11;;;;;;;5.68;5.28;;;;;;;10.30;100.00;101650.72;6075801;23;20805;-74
2022/09/20 06:19:07;;;;;;;5.18;4.88;;;;;;;10.76;100.00;101716.41;6082911;23;20026;-75
2022/09/20 06:21:51;;;;;;;5.38;5.07;;;;;;;10.43;100.00;101650.28;6055569;23;20874;-76
2022/09/20 06:24:31;;;;;;;17.13;6.28;;;;;;;10.88;100.00;101715.09;6097653;23;20025;-75
2022/09/20 06:27:03;;;;;;;8.15;5.53;;;;;;;10.94;100.00;101720.13;6076537;23;20104;-75
2022/09/20 06:29:35;;;;;;;6.40;6.05;;;;;;;11.04;100.00;101715.41;6100257;23;20463;-76
2022/09/20 06:32:01;;;;;;;5.60;5.10;;;;;;;11.09;100.00;101721.34;6097755;23;20619;-75
2022/09/20 06:34:28;;;;;;;6.63;6.22;;;;;;;10.54;100.00;101606.97;6072621;23;20077;-76
2022/09/20 06:43:18;;;;;;;6.90;6.50;;;;;;;11.50;100.00;101721.50;6049608;23;20018;-74
2022/09/20 06:45:44;;;;;;;6.15;5.55;;;;;;;11.02;100.00;101647.16;6073120;23;20113;-74
2022/09/20 06:48:12;;;;;;;5.88;5.57;;;;;;;11.06;100.00;101616.38;6103678;23;20443;-77
2022/09/20 06:50:38;;;;;;;5.60;5.30;;;;;;;11.69;100.00;101716.38;6066120;23;20010;-76
2022/09/20 06:53:05;;;;;;;6.25;5.85;;;;;;;11.41;100.00;101678.03;6107413;23;20092;-74
2022/09/20 06:55:36;;;;;;;6.75;6.25;;;;;;;11.72;100.00;101718.88;6066098;23;20013;-76
2022/09/20 06:58:03;;;;;;;6.13;5.57;;;;;;;11.09;100.00;101605.75;6112463;23;20020;-76
2022/09/20 07:00:29;;;;;;;6.63;6.22;;;;;;;11.70;100.00;101695.25;6064148;23;20076;-75
2022/09/20 07:02:56;;;;;;;5.53;5.22;;;;;;;12.01;100.00;101730.88;6097096;23;20744;-76
2022/09/20 07:05:23;;;;;;;7.82;7.38;;;;;;;11.51;100.00;101620.72;6070304;23;20022;-76
2022/09/20 07:07:49;;;;;;;12.38;5.90;;;;;;;11.87;100.00;101654.28;6102969;23;20020;-77
2022/09/20 07:10:16;;;;;;;6.30;5.90;;;;;;;12.15;100.00;101706.59;6133800;23;20017;-75
2022/09/20 07:12:42;;;;;;;10.82;6.03;;;;;;;12.02;100.00;101700.13;6133151;23;20009;-76
2022/09/20 07:15:09;;;;;;;6.85;6.20;;;;;;;11.35;100.00;101581.91;6132558;23;20020;-78
2022/09/20 07:17:35;;;;;;;5.30;5.00;;;;;;;12.16;100.00;101711.78;6106626;23;20029;-78
2022/09/20 07:20:02;;;;;;;5.50;5.20;;;;;;;12.18;100.00;101711.72;6116297;23;20017;-75
2022/09/20 07:22:28;;;;;;;7.25;6.75;;;;;;;12.39;100.00;101694.16;6097666;23;20006;-75
2022/09/20 07:24:54;;;;;;;6.00;5.60;;;;;;;12.76;100.00;101708.31;6118435;23;20062;-76
2022/09/20 07:27:21;;;;;;;7.78;7.07;;;;;;;13.02;100.00;101691.31;6123434;23;20085;-75
2022/09/20 07:29:51;;;;;;;5.68;5.30;;;;;;;13.49;100.00;101727.78;6106340;23;20147;-76
2022/09/20 07:32:18;;;;;;;6.70;6.30;;;;;;;13.70;100.00;101732.97;6139808;23;20013;-77
2022/09/20 07:34:44;;;;;;;5.60;5.22;;;;;;;13.52;100.00;101739.97;6113343;23;20083;-76
2022/09/20 07:37:11;;;;;;;5.95;5.65;;;;;;;13.18;100.00;101696.72;6124626;23;20017;-78
2022/09/20 07:39:37;;;;;;;5.72;5.30;;;;;;;12.88;100.00;101646.31;6134247;23;20300;-75
2022/09/20 07:42:05;;;;;;;5.30;5.00;;;;;;;12.74;100.00;101621.44;6135291;23;20090;-74
2022/09/20 07:44:31;;;;;;;6.40;6.00;;;;;;;12.77;100.00;101631.84;6120162;23;20033;-75
2022/09/20 07:46:59;;;;;;;8.48;5.47;;;;;;;13.35;100.00;101748.69;6126129;23;20017;-75
2022/09/20 07:49:30;;;;;;;6.75;6.45;;;;;;;13.33;100.00;101755.78;6120265;23;20105;-76
2022/09/20 07:51:57;;;;;;;5.60;5.30;;;;;;;12.95;100.00;101693.38;6097083;23;20029;-76
2022/09/20 07:54:26;;;;;;;6.57;6.18;;;;;;;13.02;100.00;101691.31;6128417;23;20032;-74
2022/09/20 07:56:53;;;;;;;5.60;5.28;;;;;;;13.34;100.00;101736.44;6134273;23;20016;-75
2022/09/20 07:59:19;;;;;;;6.90;6.45;;;;;;;13.79;100.00;101748.34;6132771;23;20017;-75
2022/09/20 08:01:46;;;;;;;5.85;5.43;;;;;;;14.27;100.00;101765.31;6126872;23;20070;-75
2022/09/20 08:04:13;;;;;;;6.38;5.88;;;;;;;14.43;100.00;101744.22;6133745;23;20056;-76
2022/09/20 08:06:44;;;;;;;5.63;5.32;;;;;;;14.48;100.00;101741.38;6125923;23;20025;-77
2022/09/20 08:09:12;;;;;;;6.85;5.47;;;;;;;14.70;100.00;101765.75;6135883;23;20024;-77
2022/09/20 08:11:40;;;;;;;6.15;5.70;;;;;;;14.50;100.00;101735.06;6078023;23;20022;-77
2022/09/20 08:14:08;;;;;;;5.45;5.15;;;;;;;13.71;100.00;101611.53;6076288;23;20107;-74
2022/09/20 08:16:43;;;;;;;8.60;5.80;;;;;;;14.46;100.00;101767.84;6108571;23;20025;-75
2022/09/20 08:19:20;;;;;;;5.57;5.28;;;;;;;14.24;100.00;101776.00;6116117;23;20591;-74
2022/09/20 08:21:48;;;;;;;5.28;5.00;;;;;;;14.37;100.00;101778.88;6098404;23;20682;-75
2022/09/20 08:24:16;;;;;;;6.50;6.20;;;;;;;13.83;100.00;101696.25;6120663;23;20078;-75
2022/09/20 08:26:43;;;;;;;7.45;5.13;;;;;;;14.31;100.00;101787.13;6095169;23;20022;-76
2022/09/20 08:29:10;;;;;;;6.35;5.60;;;;;;;14.54;100.00;101788.59;6130377;23;20748;-77
2022/09/20 08:31:40;;;;;;;5.90;5.40;;;;;;;14.46;100.00;101782.84;6100243;23;20569;-74
2022/09/20 08:34:09;;;;;;;5.78;4.95;;;;;;;14.63;100.00;101793.41;6130054;23;20898;-76
2022/09/20 08:36:39;;;;;;;5.60;5.30;;;;;;;14.73;100.00;101789.41;6083357;23;20127;-77
2022/09/20 08:39:07;;;;;;;6.18;5.70;;;;;;;14.81;100.00;101794.25;6133030;23;20025;-77
2022/09/20 08:41:55;;;;;;;5.80;5.40;;;;;;;14.53;100.00;101792.16;6106903;23;20043;-75
2022/09/20 08:44:31;;;;;;;6.57;6.20;;;;;;;14.42;100.00;101762.81;6130544;23;20028;-75
2022/09/20 08:47:19;;;;;;;5.57;5.28;;;;;;;14.39;100.00;101803.41;6093061;23;20020;-76
2022/09/20 08:49:46;;;;;;;6.03;5.63;;;;;;;13.92;100.00;101707.22;6132021;23;20040;-76
2022/09/20 08:52:19;;;;;;;6.68;6.07;;;;;;;14.79;100.00;101801.41;6070403;23;20656;-75
2022/09/20 08:54:46;;;;;;;6.28;5.68;;;;;;;14.70;100.00;101752.53;6131127;23;20021;-76
2022/09/20 08:57:19;;;;;;;8.32;6.10;;;;;;;15.16;100.00;101797.66;6098688;23;20014;-75
2022/09/20 08:59:45;;;;;;;5.80;5.50;;;;;;;15.21;100.00;101778.06;6121673;23;20032;-76
2022/09/20 09:02:19;;;;;;;5.45;5.15;;;;;;;15.60;98.96;101796.19;6084994;23;20063;-76
2022/09/20 09:04:47;;;;;;;5.47;5.18;;;;;;;15.58;95.82;101778.69;6129878;23;20029;-75
2022/09/20 09:07:18;;;;;;;6.43;5.70;;;;;;;15.18;93.07;101714.78;6103634;23;20087;-76
2022/09/20 09:09:46;;;;;;;5.43;5.13;;;;;;;15.82;93.45;101797.66;6134393;23;20029;-74
2022/09/20 09:12:19;;;;;;;5.57;5.28;;;;;;;15.61;91.02;101810.25;6083626;23;20025;-75
2022/09/20 09:14:53;;;;;;;5.57;5.28;;;;;;;15.64;90.54;101818.03;6130515;23;20524;-73
2022/09/20 09:17:26;;;;;;;7.18;6.78;;;;;;;15.78;93.65;101790.84;6077983;23;20041;-74
2022/09/20 09:19:58;;;;;;;5.50;5.20;;;;;;;15.49;92.43;101753.59;6113466;23;20025;-74
2022/09/20 09:22:38;;;;;;;6.55;6.25;;;;;;;15.66;89.05;101779.13;6105710;23;20025;-75
2022/09/20 09:25:19;;;;;;;5.90;5.43;;;;;;;15.39;84.40;101795.56;6145030;23;20036;-75
2022/09/20 09:27:52;;;;;;;6.90;4.80;;;;;;;14.94;86.17;101802.41;6086009;23;20014;-74
2022/09/20 09:30:20;;;;;;;;;;;;;;;15.11;85.41;101807.66;6139718;23;20096;-74
2022/09/20 09:32:47;;;;;;;4.97;4.78;;;;;;;14.80;85.68;101783.78;6099885;23;19909;-75
2022/09/20 09:35:44;;;;;;;5.35;5.10;;;;;;;14.86;86.09;101813.38;6096489;23;20051;-75
2022/09/20 09:38:22;;;;;;;5.25;4.90;;;;;;;14.83;85.46;101808.25;6070746;23;20008;-77
2022/09/20 09:40:57;;;;;;;5.22;4.72;;;;;;;14.77;88.22;101819.13;6124043;23;20030;-75
2022/09/20 09:43:28;;;;;;;6.35;6.05;;;;;;;14.64;86.61;101818.06;6101723;23;20086;-75
2022/09/20 09:46:16;;;;;;;5.20;4.70;;;;;;;14.41;84.58;101804.19;6118916;23;20027;-74
2022/09/20 09:48:48;;;;;;;5.10;4.80;;;;;;;13.42;84.44;101581.34;6106978;23;20021;-75
2022/09/20 09:51:17;;;;;;;5.72;5.43;;;;;;;15.29;82.77;101791.72;6118894;23;20025;-74
2022/09/20 09:53:45;;;;;;;5.00;4.70;;;;;;;15.52;81.38;101713.75;6087972;23;20020;-75
2022/09/20 09:56:23;;;;;;;5.05;4.82;;;;;;;16.38;76.49;101806.75;6124311;23;20333;-76
2022/09/20 09:58:55;;;;;;;6.32;5.60;;;;;;;16.47;73.75;101792.09;6100964;23;20009;-75
2022/09/20 10:01:54;;;;;;;6.88;6.47;;;;;;;16.80;74.36;101810.44;6135314;23;20017;-74
2022/09/20 10:04:43;;;;;;;6.22;5.93;;;;;;;16.94;70.71;101810.47;6111557;23;20491;-74
2022/09/20 10:07:15;;;;;;;6.30;5.57;;;;;;;16.90;70.65;101802.81;6110671;23;20018;-77
2022/09/20 10:10:14;;;;;;;5.50;5.20;;;;;;;16.69;72.43;101807.56;6078590;23;20457;-76
2022/09/20 10:13:08;;;;;;;5.22;4.93;;;;;;;15.91;69.10;101730.94;6109569;23;20013;-76
2022/09/20 10:15:53;;;;;;;5.32;5.10;;;;;;;16.28;71.18;101810.91;6104901;23;20013;-74
2022/09/20 10:18:41;;;;;;;6.60;6.00;;;;;;;15.95;72.15;101818.03;6077265;23;20483;-74
2022/09/20 10:22:00;;;;;;;5.40;5.10;;;;;;;15.53;74.57;101822.09;6095634;23;20029;-77
2022/09/20 10:25:08;;;;;;;6.03;5.70;;;;;;;15.42;77.92;101816.56;6064697;23;20035;-76
2022/09/20 10:28:15;;;;;;;5.32;4.82;;;;;;;15.33;80.51;101823.22;6072862;23;20273;-75
2022/09/20 10:30:57;;;;;;;5.03;4.63;;;;;;;15.28;81.64;101816.47;6117430;23;20039;-76
2022/09/20 10:33:26;;;;;;;6.38;6.07;;;;;;;15.14;82.89;101820.69;6108292;23;20025;-77
2022/09/20 10:36:20;;;;;;;4.97;4.70;;;;;;;15.03;83.60;101824.84;6093773;23;20023;-76
2022/09/20 10:39:04;;;;;;;5.25;5.00;;;;;;;14.51;85.38;101767.59;6102484;23;20021;-75
2022/09/20 10:45:15;;;;;;;4.80;4.60;;;;;;;14.98;88.68;101826.91;6098461;23;20019;-75
2022/09/20 10:48:17;;;;;;;4.80;4.60;;;;;;;14.43;90.41;101772.44;6075420;23;20049;-75
2022/09/20 10:50:53;;;;;;;5.78;4.75;;;;;;;14.35;89.24;101788.66;6111579;23;20021;-75
2022/09/20 10:53:43;;;;;;;6.28;5.93;;;;;;;14.59;91.85;101855.28;6096184;23;20029;-76
2022/09/20 10:56:32;;;;;;;4.72;4.50;;;;;;;13.91;93.69;101819.00;6105889;23;20240;-74
2022/09/20 10:59:41;;;;;;;5.00;4.80;;;;;;;13.86;94.59;101865.00;6094119;23;20086;-75
2022/09/20 11:02:29;;;;;;;4.75;4.55;;;;;;;13.72;98.78;101868.28;6102845;23;20017;-73
2022/09/20 11:05:13;;;;;;;5.60;5.40;;;;;;;13.02;100.00;101782.69;6107701;23;20001;-75
2022/09/20 11:08:00;;;;;;;5.10;4.90;;;;;;;13.52;100.00;101877.97;6121235;23;20025;-74
2022/09/20 11:10:35;;;;;;;5.63;5.22;;;;;;;13.47;100.00;101836.91;6135616;23;20012;-75
2022/09/20 11:13:26;;;;;;;4.93;4.72;;;;;;;13.95;100.00;101870.69;6133066;23;20086;-75
2022/09/20 11:16:04;;;;;;;4.90;4.70;;;;;;;14.11;100.00;101872.59;6109804;23;20009;-73
2022/09/20 11:18:35;;;;;;;5.20;5.00;;;;;;;14.33;100.00;101869.75;6138675;23;20087;-73
2022/09/20 11:21:33;;;;;;;4.80;4.60;;;;;;;14.50;99.67;101890.06;6139519;23;20024;-75
2022/09/20 11:24:27;;;;;;;4.70;4.50;;;;;;;14.62;99.55;101864.84;6128056;23;20186;-76
2022/09/20 11:27:11;;;;;;;4.90;4.70;;;;;;;14.41;98.63;101814.75;6070329;23;20009;-74
2022/09/20 11:29:45;;;;;;;4.70;4.50;;;;;;;14.85;98.71;101876.88;6137300;23;20080;-74
2022/09/20 11:32:24;;;;;;;5.03;4.82;;;;;;;14.79;99.77;101872.75;6127269;23;20076;-75
2022/09/20 11:34:55;;;;;;;4.80;4.60;;;;;;;14.64;99.55;101847.97;6135921;23;20016;-75
2022/09/20 11:37:29;;;;;;;6.88;5.30;;;;;;;15.05;99.91;101884.63;6132497;23;20013;-75
2022/09/20 11:40:00;;;;;;;4.70;4.50;;;;;;;14.97;99.25;101881.53;6134355;23;20635;-75
2022/09/20 11:42:32;;;;;;;7.05;6.65;;;;;;;14.84;99.04;101823.19;6140009;23;20024;-73
2022/09/20 11:44:58;;;;;;;4.78;4.57;;;;;;;15.22;96.57;101841.44;6142155;23;20097;-74
2022/09/20 11:47:34;;;;;;;6.07;5.78;;;;;;;15.49;94.52;101878.78;6142065;23;20096;-73
2022/09/20 11:50:44;;;;;;;5.95;5.65;;;;;;;15.64;92.83;101878.91;6139848;23;20001;-75
2022/09/20 11:53:41;;;;;;;5.07;4.78;;;;;;;15.81;90.45;101878.00;6124734;23;20020;-75
2022/09/20 11:56:29;;;;;;;5.00;4.80;;;;;;;15.97;87.66;101878.84;6136961;23;20916;-75
2022/09/20 11:58:58;;;;;;;4.97;4.60;;;;;;;16.06;86.75;101882.78;6133922;23;20037;-73
2022/09/20 12:01:35;;;;;;;6.60;5.90;;;;;;;16.16;85.87;101876.03;6136103;23;20013;-74
2022/09/20 12:04:18;;;;;;;4.75;4.55;;;;;;;16.43;84.13;101880.66;6137671;23;20103;-74
2022/09/20 12:07:06;;;;;;;4.93;4.72;;;;;;;16.98;80.07;101865.97;6142870;23;20024;-74
2022/09/20 12:09:41;;;;;;;5.18;4.93;;;;;;;17.06;72.25;101866.34;6141034;23;20453;-75
2022/09/20 12:12:26;;;;;;;5.85;5.60;;;;;;;17.76;74.00;101863.78;6139653;23;20055;-74
2022/09/20 12:14:55;;;;;;;5.65;5.35;;;;;;;17.17;70.32;101759.59;6137186;23;20009;-74
2022/09/20 12:17:46;;;;;;;6.43;6.13;;;;;;;17.93;71.73;101847.63;6121313;23;20087;-73
2022/09/20 12:20:31;;;;;;;5.32;5.07;;;;;;;18.08;69.76;101848.44;6139544;23;20025;-75
2022/09/20 12:23:39;;;;;;;5.10;4.90;;;;;;;17.23;69.12;101738.00;6126085;23;20012;-74
2022/09/20 12:26:19;;;;;;;8.60;5.25;;;;;;;17.71;69.84;101852.59;6117505;23;20736;-74
2022/09/20 12:28:51;;;;;;;5.10;4.90;;;;;;;17.25;69.94;101794.47;6111176;23;20040;-73